sensor_id;sensor_type;location;lat;lon;timestamp;pressure;altitude;pressure_sealevel;temperature;humidity
4586;BME280;2305;50.118;8.952;2023-07-09T00:02:19;100735.38;;;24.12;100.00
4586;BME280;2305;50.118;8.952;2023-07-09T00:04:47;100748.19;;;24.10;100.00
4586;BME280;2305;50.118;8.952;2023-07-09T00:07:19;100747.34;;;24.03;100.00
4586;BME280;2305;50.118;8.952;2023-07-09T00:09:49;100754.56;;;23.96;100.00
4586;BME280;2305;50.118;8.952;2023-07-09T00:12:18;100745.25;;;23.92;100.00
4586;BME280;2305;50.118;8.952;2023-07-09T00:14:46;100749.72;;;23.85;100.00
4586;BME280;2305;50.118;8.952;2023-07-09T00:17:22;100757.75;;;23.79;100.00
4586;BME280;2305;50.118;8.952;2023-07-09T00:19:53;100765.81;;;23.72;100.00
4586;BME280;2305;50.118;8.952;2023-07-09T00:22:20;100753.97;;;23.67;100.00
4586;BME280;2305;50.118;8.952;2023-07-09T00:24:50;100756.88;;;23.65;100.00
4586;BME280;2305;50.118;8.952;2023-07-09T00:27:20;100762.66;;;23.62;100.00
4586;BME280;2305;50.118;8.952;2023-07-09T00:29:49;100767.19;;;23.62;100.00
4586;BME280;2305;50.118;8.952;2023-07-09T00:32:22;100770.06;;;23.60;100.00
4586;BME280;2305;50.118;8.952;2023-07-09T00:34:52;100770.03;;;23.54;100.00
4586;BME280;2305;50.118;8.952;2023-07-09T00:37:24;100772.22;;;23.44;100.00
4586;BME280;2305;50.118;8.952;2023-07-09T00:39:53;100779.25;;;23.38;100.00
4586;BME280;2305;50.118;8.952;2023-07-09T00:42:25;100773.03;;;23.38;100.00
4586;BME280;2305;50.118;8.952;2023-07-09T00:44:54;100770.72;;;23.35;100.00
4586;BME280;2305;50.118;8.952;2023-07-09T00:47:34;100771.94;;;23.32;100.00
4586;BME280;2305;50.118;8.952;2023-07-09T00:50:14;100770.88;;;23.27;100.00
4586;BME280;2305;50.118;8.952;2023-07-09T00:52:50;100768.78;;;23.22;100.00
4586;BME280;2305;50.118;8.952;2023-07-09T00:55:23;100771.47;;;23.22;100.00
4586;BME280;2305;50.118;8.952;2023-07-09T00:57:56;100774.16;;;23.22;100.00
4586;BME280;2305;50.118;8.952;2023-07-09T01:00:30;100775.56;;;23.18;100.00
4586;BME280;2305;50.118;8.952;2023-07-09T01:03:06;100782.81;;;23.18;100.00
4586;BME280;2305;50.118;8.952;2023-07-09T01:05:35;100786.44;;;23.10;100.00
4586;BME280;2305;50.118;8.952;2023-07-09T01:08:05;100784.16;;;23.07;100.00
4586;BME280;2305;50.118;8.952;2023-07-09T01:10:35;100786.19;;;23.05;100.00
4586;BME280;2305;50.118;8.952;2023-07-09T01:13:06;100781.00;;;23.04;100.00
4586;BME280;2305;50.118;8.952;2023-07-09T01:15:36;100786.13;;;22.99;100.00
4586;BME280;2305;50.118;8.952;2023-07-09T01:18:09;100790.81;;;22.90;100.00
4586;BME280;2305;50.118;8.952;2023-07-09T01:20:39;100792.22;;;22.86;100.00
4586;BME280;2305;50.118;8.952;2023-07-09T01:23:10;100790.94;;;22.82;100.00
4586;BME280;2305;50.118;8.952;2023-07-09T01:25:43;100795.50;;;22.82;100.00
4586;BME280;2305;50.118;8.952;2023-07-09T01:28:13;100802.25;;;22.78;100.00
4586;BME280;2305;50.118;8.952;2023-07-09T01:30:47;100793.38;;;22.77;100.00
4586;BME280;2305;50.118;8.952;2023-07-09T01:33:21;100794.03;;;22.79;100.00
4586;BME280;2305;50.118;8.952;2023-07-09T01:35:49;100800.59;;;22.77;100.00
4586;BME280;2305;50.118;8.952;2023-07-09T01:38:22;100796.63;;;22.73;100.00
4586;BME280;2305;50.118;8.952;2023-07-09T01:40:50;100800.16;;;22.73;100.00
4586;BME280;2305;50.118;8.952;2023-07-09T01:43:18;100796.84;;;22.71;100.00
4586;BME280;2305;50.118;8.952;2023-07-09T01:45:46;100794.50;;;22.68;100.00
4586;BME280;2305;50.118;8.952;2023-07-09T01:48:17;100794.91;;;22.65;100.00
4586;BME280;2305;50.118;8.952;2023-07-09T01:50:47;100790.75;;;22.63;100.00
4586;BME280;2305;50.118;8.952;2023-07-09T01:53:18;100792.97;;;22.59;100.00
4586;BME280;2305;50.118;8.952;2023-07-09T01:55:48;100805.78;;;22.57;100.00
4586;BME280;2305;50.118;8.952;2023-07-09T01:58:17;100793.09;;;22.51;100.00
4586;BME280;2305;50.118;8.952;2023-07-09T02:00:46;100800.31;;;22.51;100.00
4586;BME280;2305;50.118;8.952;2023-07-09T02:03:15;100798.84;;;22.48;100.00
4586;BME280;2305;50.118;8.952;2023-07-09T02:05:44;100792.84;;;22.46;100.00
4586;BME280;2305;50.118;8.952;2023-07-09T02:08:14;100799.78;;;22.41;100.00
4586;BME280;2305;50.118;8.952;2023-07-09T02:10:43;100803.97;;;22.43;100.00
4586;BME280;2305;50.118;8.952;2023-07-09T02:13:13;100800.44;;;22.43;100.00
4586;BME280;2305;50.118;8.952;2023-07-09T02:15:43;100806.84;;;22.42;100.00
4586;BME280;2305;50.118;8.952;2023-07-09T02:18:12;100807.81;;;22.41;100.00
4586;BME280;2305;50.118;8.952;2023-07-09T02:20:39;100809.66;;;22.40;100.00
4586;BME280;2305;50.118;8.952;2023-07-09T02:23:08;100804.88;;;22.36;100.00
4586;BME280;2305;50.118;8.952;2023-07-09T02:25:36;100811.84;;;22.30;100.00
4586;BME280;2305;50.118;8.952;2023-07-09T02:28:04;100810.34;;;22.28;100.00
4586;BME280;2305;50.118;8.952;2023-07-09T02:30:33;100809.72;;;22.26;100.00
4586;BME280;2305;50.118;8.952;2023-07-09T02:33:03;100808.25;;;22.23;100.00
4586;BME280;2305;50.118;8.952;2023-07-09T02:35:31;100808.63;;;22.20;100.00
4586;BME280;2305;50.118;8.952;2023-07-09T02:38:02;100810.56;;;22.12;100.00
4586;BME280;2305;50.118;8.952;2023-07-09T02:40:30;100819.81;;;22.09;100.00
4586;BME280;2305;50.118;8.952;2023-07-09T02:43:00;100818.16;;;22.08;100.00
4586;BME280;2305;50.118;8.952;2023-07-09T02:45:31;100818.53;;;22.05;100.00
4586;BME280;2305;50.118;8.952;2023-07-09T02:48:01;100825.75;;;22.05;100.00
4586;BME280;2305;50.118;8.952;2023-07-09T02:50:35;100823.63;;;22.00;100.00
4586;BME280;2305;50.118;8.952;2023-07-09T02:53:03;100824.38;;;21.94;100.00
4586;BME280;2305;50.118;8.952;2023-07-09T02:55:31;100817.91;;;21.89;100.00
4586;BME280;2305;50.118;8.952;2023-07-09T02:58:01;100825.28;;;21.87;100.00
4586;BME280;2305;50.118;8.952;2023-07-09T03:00:28;100824.81;;;21.83;100.00
4586;BME280;2305;50.118;8.952;2023-07-09T03:03:03;100828.63;;;21.74;100.00
4586;BME280;2305;50.118;8.952;2023-07-09T03:05:33;100834.53;;;21.70;100.00
4586;BME280;2305;50.118;8.952;2023-07-09T03:08:01;100828.34;;;21.69;100.00
4586;BME280;2305;50.118;8.952;2023-07-09T03:10:29;100827.88;;;21.66;100.00
4586;BME280;2305;50.118;8.952;2023-07-09T03:12:59;100829.88;;;21.64;100.00
4586;BME280;2305;50.118;8.952;2023-07-09T03:15:28;100825.72;;;21.61;100.00
4586;BME280;2305;50.118;8.952;2023-07-09T03:17:56;100827.56;;;21.61;100.00
4586;BME280;2305;50.118;8.952;2023-07-09T03:20:28;100828.66;;;21.52;100.00
4586;BME280;2305;50.118;8.952;2023-07-09T03:22:56;100830.53;;;21.51;100.00
4586;BME280;2305;50.118;8.952;2023-07-09T03:25:24;100821.53;;;21.44;100.00
4586;BME280;2305;50.118;8.952;2023-07-09T03:27:52;100837.31;;;21.39;100.00
4586;BME280;2305;50.118;8.952;2023-07-09T03:30:20;100847.59;;;21.36;100.00
4586;BME280;2305;50.118;8.952;2023-07-09T03:32:48;100848.06;;;21.39;100.00
4586;BME280;2305;50.118;8.952;2023-07-09T03:35:16;100853.88;;;21.43;100.00
4586;BME280;2305;50.118;8.952;2023-07-09T03:37:45;100845.03;;;21.42;100.00
4586;BME280;2305;50.118;8.952;2023-07-09T03:40:21;100850.72;;;21.39;100.00
4586;BME280;2305;50.118;8.952;2023-07-09T03:42:49;100849.25;;;21.37;100.00
4586;BME280;2305;50.118;8.952;2023-07-09T03:45:17;100858.13;;;21.37;100.00
4586;BME280;2305;50.118;8.952;2023-07-09T03:47:45;100862.00;;;21.35;100.00
4586;BME280;2305;50.118;8.952;2023-07-09T03:50:13;100861.38;;;21.33;100.00
4586;BME280;2305;50.118;8.952;2023-07-09T03:52:42;100858.47;;;21.34;100.00
4586;BME280;2305;50.118;8.952;2023-07-09T03:55:11;100862.66;;;21.37;100.00
4586;BME280;2305;50.118;8.952;2023-07-09T03:57:40;100858.94;;;21.38;100.00
4586;BME280;2305;50.118;8.952;2023-07-09T04:00:12;100861.00;;;21.36;100.00
4586;BME280;2305;50.118;8.952;2023-07-09T04:02:41;100862.56;;;21.30;100.00
4586;BME280;2305;50.118;8.952;2023-07-09T04:05:10;100863.38;;;21.31;100.00
4586;BME280;2305;50.118;8.952;2023-07-09T04:07:38;100862.56;;;21.30;100.00
4586;BME280;2305;50.118;8.952;2023-07-09T04:10:07;100859.88;;;21.30;100.00
4586;BME280;2305;50.118;8.952;2023-07-09T04:12:37;100874.09;;;21.31;100.00
4586;BME280;2305;50.118;8.952;2023-07-09T04:15:05;100873.09;;;21.32;100.00
4586;BME280;2305;50.118;8.952;2023-07-09T04:17:34;100878.56;;;21.38;100.00
4586;BME280;2305;50.118;8.952;2023-07-09T04:20:06;100869.88;;;21.36;100.00
4586;BME280;2305;50.118;8.952;2023-07-09T04:22:37;100876.19;;;21.43;100.00
4586;BME280;2305;50.118;8.952;2023-07-09T04:25:07;100872.13;;;21.47;100.00
4586;BME280;2305;50.118;8.952;2023-07-09T04:27:39;100874.25;;;21.52;100.00
4586;BME280;2305;50.118;8.952;2023-07-09T04:30:09;100875.00;;;21.60;100.00
4586;BME280;2305;50.118;8.952;2023-07-09T04:32:38;100869.00;;;21.58;100.00
4586;BME280;2305;50.118;8.952;2023-07-09T04:35:06;100867.81;;;21.61;100.00
4586;BME280;2305;50.118;8.952;2023-07-09T04:37:34;100858.75;;;21.62;100.00
4586;BME280;2305;50.118;8.952;2023-07-09T04:40:03;100870.28;;;21.62;100.00
4586;BME280;2305;50.118;8.952;2023-07-09T04:42:38;100871.97;;;21.63;100.00
4586;BME280;2305;50.118;8.952;2023-07-09T04:45:08;100877.66;;;21.68;100.00
4586;BME280;2305;50.118;8.952;2023-07-09T04:47:38;100878.13;;;21.72;100.00
4586;BME280;2305;50.118;8.952;2023-07-09T04:50:08;100873.59;;;21.72;100.00
4586;BME280;2305;50.118;8.952;2023-07-09T04:52:38;100877.84;;;21.81;100.00
4586;BME280;2305;50.118;8.952;2023-07-09T04:55:06;100879.81;;;21.87;100.00
4586;BME280;2305;50.118;8.952;2023-07-09T04:57:35;100883.78;;;21.91;100.00
4586;BME280;2305;50.118;8.952;2023-07-09T05:00:06;100878.53;;;21.98;100.00
4586;BME280;2305;50.118;8.952;2023-07-09T05:02:36;100879.88;;;21.94;100.00
4586;BME280;2305;50.118;8.952;2023-07-09T05:05:05;100879.88;;;21.94;100.00
4586;BME280;2305;50.118;8.952;2023-07-09T05:07:33;100879.34;;;21.98;100.00
4586;BME280;2305;50.118;8.952;2023-07-09T05:10:03;100881.19;;;21.98;100.00
4586;BME280;2305;50.118;8.952;2023-07-09T05:12:31;100882.03;;;21.98;100.00
4586;BME280;2305;50.118;8.952;2023-07-09T05:14:59;100881.19;;;21.98;100.00
4586;BME280;2305;50.118;8.952;2023-07-09T05:17:29;100881.19;;;21.98;100.00
4586;BME280;2305;50.118;8.952;2023-07-09T05:19:57;100875.28;;;22.02;100.00
4586;BME280;2305;50.118;8.952;2023-07-09T05:22:25;100872.88;;;22.07;100.00
4586;BME280;2305;50.118;8.952;2023-07-09T05:24:54;100873.97;;;22.13;100.00
4586;BME280;2305;50.118;8.952;2023-07-09T05:27:22;100882.97;;;22.20;100.00
4586;BME280;2305;50.118;8.952;2023-07-09T05:29:53;100882.84;;;22.28;100.00
4586;BME280;2305;50.118;8.952;2023-07-09T05:32:22;100875.09;;;22.33;100.00
4586;BME280;2305;50.118;8.952;2023-07-09T05:34:51;100878.34;;;22.43;100.00
4586;BME280;2305;50.118;8.952;2023-07-09T05:37:24;100874.06;;;22.48;100.00
4586;BME280;2305;50.118;8.952;2023-07-09T05:39:52;100878.44;;;22.49;100.00
4586;BME280;2305;50.118;8.952;2023-07-09T05:42:20;100869.59;;;22.55;100.00
4586;BME280;2305;50.118;8.952;2023-07-09T05:44:48;100866.16;;;22.61;100.00
4586;BME280;2305;50.118;8.952;2023-07-09T05:47:16;100870.41;;;22.70;100.00
4586;BME280;2305;50.118;8.952;2023-07-09T05:49:44;100871.31;;;22.77;100.00
4586;BME280;2305;50.118;8.952;2023-07-09T05:52:22;100870.31;;;22.78;100.00
4586;BME280;2305;50.118;8.952;2023-07-09T05:54:51;100872.78;;;22.80;100.00
4586;BME280;2305;50.118;8.952;2023-07-09T05:57:19;100874.06;;;22.84;100.00
4586;BME280;2305;50.118;8.952;2023-07-09T05:59:49;100883.63;;;22.86;100.00
4586;BME280;2305;50.118;8.952;2023-07-09T06:02:18;100879.72;;;22.89;100.00
4586;BME280;2305;50.118;8.952;2023-07-09T06:04:47;100884.34;;;22.95;100.00
4586;BME280;2305;50.118;8.952;2023-07-09T06:07:16;100893.03;;;22.97;100.00
4586;BME280;2305;50.118;8.952;2023-07-09T06:09:46;100892.72;;;23.06;100.00
4586;BME280;2305;50.118;8.952;2023-07-09T06:12:15;100896.09;;;23.15;100.00
4586;BME280;2305;50.118;8.952;2023-07-09T06:14:46;100890.44;;;23.24;100.00
4586;BME280;2305;50.118;8.952;2023-07-09T06:17:14;100899.03;;;23.34;100.00
4586;BME280;2305;50.118;8.952;2023-07-09T06:19:43;100898.25;;;23.40;100.00
4586;BME280;2305;50.118;8.952;2023-07-09T06:22:11;100892.84;;;23.40;100.00
4586;BME280;2305;50.118;8.952;2023-07-09T06:24:39;100893.75;;;23.47;100.00
4586;BME280;2305;50.118;8.952;2023-07-09T06:27:09;100894.84;;;23.53;100.00
4586;BME280;2305;50.118;8.952;2023-07-09T06:29:39;100890.97;;;23.62;100.00
4586;BME280;2305;50.118;8.952;2023-07-09T06:32:07;100892.13;;;23.74;100.00
4586;BME280;2305;50.118;8.952;2023-07-09T06:34:35;100896.69;;;23.80;100.00
4586;BME280;2305;50.118;8.952;2023-07-09T06:37:03;100892.88;;;23.89;100.00
4586;BME280;2305;50.118;8.952;2023-07-09T06:39:31;100893.16;;;24.00;100.00
4586;BME280;2305;50.118;8.952;2023-07-09T06:41:59;100901.09;;;24.08;100.00
4586;BME280;2305;50.118;8.952;2023-07-09T06:44:48;100908.41;;;24.21;100.00
4586;BME280;2305;50.118;8.952;2023-07-09T06:47:18;100902.47;;;24.32;100.00
4586;BME280;2305;50.118;8.952;2023-07-09T06:49:46;100908.91;;;24.37;100.00
4586;BME280;2305;50.118;8.952;2023-07-09T06:52:15;100913.25;;;24.38;100.00
4586;BME280;2305;50.118;8.952;2023-07-09T06:54:46;100911.63;;;24.43;100.00
4586;BME280;2305;50.118;8.952;2023-07-09T06:57:16;100912.50;;;24.50;100.00
4586;BME280;2305;50.118;8.952;2023-07-09T06:59:47;100911.53;;;24.58;100.00
4586;BME280;2305;50.118;8.952;2023-07-09T07:02:24;100905.97;;;24.66;100.00
4586;BME280;2305;50.118;8.952;2023-07-09T07:04:54;100906.00;;;24.72;100.00
4586;BME280;2305;50.118;8.952;2023-07-09T07:07:23;100900.63;;;24.79;100.00
4586;BME280;2305;50.118;8.952;2023-07-09T07:09:53;100897.31;;;24.83;100.00
4586;BME280;2305;50.118;8.952;2023-07-09T07:12:26;100899.81;;;24.91;100.00
4586;BME280;2305;50.118;8.952;2023-07-09T07:14:56;100906.09;;;25.05;100.00
4586;BME280;2305;50.118;8.952;2023-07-09T07:17:27;100888.88;;;25.12;100.00
4586;BME280;2305;50.118;8.952;2023-07-09T07:19:58;100889.72;;;25.19;100.00
4586;BME280;2305;50.118;8.952;2023-07-09T07:22:31;100886.22;;;25.32;100.00
4586;BME280;2305;50.118;8.952;2023-07-09T07:25:00;100886.66;;;25.42;100.00
4586;BME280;2305;50.118;8.952;2023-07-09T07:27:28;100881.25;;;25.48;100.00
4586;BME280;2305;50.118;8.952;2023-07-09T07:29:57;100884.59;;;25.57;100.00
4586;BME280;2305;50.118;8.952;2023-07-09T07:32:25;100890.81;;;25.83;100.00
4586;BME280;2305;50.118;8.952;2023-07-09T07:34:54;100879.59;;;25.86;100.00
4586;BME280;2305;50.118;8.952;2023-07-09T07:37:22;100883.16;;;25.93;100.00
4586;BME280;2305;50.118;8.952;2023-07-09T07:39:52;100882.69;;;26.03;100.00
4586;BME280;2305;50.118;8.952;2023-07-09T07:42:27;100873.75;;;26.09;100.00
4586;BME280;2305;50.118;8.952;2023-07-09T07:44:55;100876.22;;;26.17;100.00
4586;BME280;2305;50.118;8.952;2023-07-09T07:47:22;100879.31;;;26.27;100.00
4586;BME280;2305;50.118;8.952;2023-07-09T07:49:54;100874.72;;;26.34;100.00
4586;BME280;2305;50.118;8.952;2023-07-09T07:52:22;100879.03;;;26.48;100.00
4586;BME280;2305;50.118;8.952;2023-07-09T07:54:51;100872.56;;;26.62;100.00
4586;BME280;2305;50.118;8.952;2023-07-09T07:57:21;100867.09;;;26.68;100.00
4586;BME280;2305;50.118;8.952;2023-07-09T07:59:49;100870.00;;;26.73;100.00
4586;BME280;2305;50.118;8.952;2023-07-09T08:02:17;100869.75;;;26.81;100.00
4586;BME280;2305;50.118;8.952;2023-07-09T08:04:46;100871.97;;;26.91;100.00
4586;BME280;2305;50.118;8.952;2023-07-09T08:07:17;100882.53;;;26.99;100.00
4586;BME280;2305;50.118;8.952;2023-07-09T08:09:46;100885.59;;;27.09;100.00
4586;BME280;2305;50.118;8.952;2023-07-09T08:12:17;100874.09;;;27.20;100.00
4586;BME280;2305;50.118;8.952;2023-07-09T08:14:49;100874.88;;;27.27;100.00
4586;BME280;2305;50.118;8.952;2023-07-09T08:17:17;100870.25;;;27.34;100.00
4586;BME280;2305;50.118;8.952;2023-07-09T08:19:51;100866.19;;;27.49;99.89
4586;BME280;2305;50.118;8.952;2023-07-09T08:22:21;100869.63;;;27.56;97.25
4586;BME280;2305;50.118;8.952;2023-07-09T08:24:50;100868.75;;;27.62;99.31
4586;BME280;2305;50.118;8.952;2023-07-09T08:27:19;100872.00;;;27.71;99.25
4586;BME280;2305;50.118;8.952;2023-07-09T08:29:48;100869.03;;;27.79;98.87
4586;BME280;2305;50.118;8.952;2023-07-09T08:32:16;100861.38;;;27.94;95.52
4586;BME280;2305;50.118;8.952;2023-07-09T08:34:44;100866.59;;;27.95;97.77
4586;BME280;2305;50.118;8.952;2023-07-09T08:37:37;100861.94;;;28.02;100.00
4586;BME280;2305;50.118;8.952;2023-07-09T08:40:10;100856.69;;;28.07;100.00
4586;BME280;2305;50.118;8.952;2023-07-09T08:42:42;100848.47;;;28.14;98.02
4586;BME280;2305;50.118;8.952;2023-07-09T08:45:33;100852.50;;;28.23;96.92
4586;BME280;2305;50.118;8.952;2023-07-09T08:48:06;100853.03;;;28.31;96.02
4586;BME280;2305;50.118;8.952;2023-07-09T08:50:40;100847.94;;;28.41;95.95
4586;BME280;2305;50.118;8.952;2023-07-09T08:53:20;100852.97;;;28.56;94.79
4586;BME280;2305;50.118;8.952;2023-07-09T08:55:50;100852.66;;;28.64;93.89
4586;BME280;2305;50.118;8.952;2023-07-09T08:58:23;100856.69;;;28.73;94.07
4586;BME280;2305;50.118;8.952;2023-07-09T09:00:54;100850.94;;;28.81;92.67
4586;BME280;2305;50.118;8.952;2023-07-09T09:03:34;100855.22;;;28.88;91.83
4586;BME280;2305;50.118;8.952;2023-07-09T09:06:11;100856.84;;;28.96;92.18
4586;BME280;2305;50.118;8.952;2023-07-09T09:08:50;100853.19;;;29.02;91.76
4586;BME280;2305;50.118;8.952;2023-07-09T09:11:28;100849.91;;;29.11;90.85
4586;BME280;2305;50.118;8.952;2023-07-09T09:14:03;100849.25;;;29.27;88.46
4586;BME280;2305;50.118;8.952;2023-07-09T09:16:36;100850.41;;;29.31;91.53
4586;BME280;2305;50.118;8.952;2023-07-09T09:19:15;100849.97;;;29.34;89.62
4586;BME280;2305;50.118;8.952;2023-07-09T09:21:47;100849.97;;;29.46;89.23
4586;BME280;2305;50.118;8.952;2023-07-09T09:24:27;100850.13;;;29.62;87.82
4586;BME280;2305;50.118;8.952;2023-07-09T09:26:58;100850.72;;;29.76;86.54
4586;BME280;2305;50.118;8.952;2023-07-09T09:29:27;100836.63;;;29.90;86.87
4586;BME280;2305;50.118;8.952;2023-07-09T09:31:57;100830.59;;;30.00;85.74
4586;BME280;2305;50.118;8.952;2023-07-09T09:34:28;100832.53;;;30.11;86.37
4586;BME280;2305;50.118;8.952;2023-07-09T09:36:58;100829.78;;;30.22;83.86
4586;BME280;2305;50.118;8.952;2023-07-09T09:39:31;100835.69;;;30.31;83.43
4586;BME280;2305;50.118;8.952;2023-07-09T09:41:59;100826.53;;;30.36;83.79
4586;BME280;2305;50.118;8.952;2023-07-09T09:44:28;100828.66;;;30.34;85.00
4586;BME280;2305;50.118;8.952;2023-07-09T09:46:58;100838.13;;;30.32;85.51
4586;BME280;2305;50.118;8.952;2023-07-09T09:49:38;100833.53;;;30.33;84.62
4586;BME280;2305;50.118;8.952;2023-07-09T09:52:11;100835.72;;;30.47;83.51
4586;BME280;2305;50.118;8.952;2023-07-09T09:54:52;100829.91;;;30.55;81.85
4586;BME280;2305;50.118;8.952;2023-07-09T09:57:24;100824.69;;;30.65;79.63
4586;BME280;2305;50.118;8.952;2023-07-09T09:59:54;100827.13;;;30.78;77.74
4586;BME280;2305;50.118;8.952;2023-07-09T10:02:39;100828.69;;;30.90;78.67
4586;BME280;2305;50.118;8.952;2023-07-09T10:05:12;100835.50;;;31.04;77.56
4586;BME280;2305;50.118;8.952;2023-07-09T10:07:46;100833.78;;;31.15;76.44
4586;BME280;2305;50.118;8.952;2023-07-09T10:10:20;100831.00;;;31.26;75.44
4586;BME280;2305;50.118;8.952;2023-07-09T10:12:57;100827.06;;;31.34;75.15
4586;BME280;2305;50.118;8.952;2023-07-09T10:15:42;100829.34;;;31.42;74.31
4586;BME280;2305;50.118;8.952;2023-07-09T10:18:25;100830.34;;;31.52;74.43
4586;BME280;2305;50.118;8.952;2023-07-09T10:21:03;100827.19;;;31.60;73.15
4586;BME280;2305;50.118;8.952;2023-07-09T10:23:37;100825.25;;;31.72;72.29
4586;BME280;2305;50.118;8.952;2023-07-09T10:26:11;100820.44;;;31.79;69.49
4586;BME280;2305;50.118;8.952;2023-07-09T10:29:01;100821.00;;;32.03;67.68
4586;BME280;2305;50.118;8.952;2023-07-09T10:31:40;100810.38;;;32.01;68.03
4586;BME280;2305;50.118;8.952;2023-07-09T10:34:21;100806.38;;;32.09;69.45
4586;BME280;2305;50.118;8.952;2023-07-09T10:37:13;100806.75;;;32.17;68.32
4586;BME280;2305;50.118;8.952;2023-07-09T10:39:48;100807.72;;;32.28;66.40
4586;BME280;2305;50.118;8.952;2023-07-09T10:42:22;100795.81;;;32.34;65.53
4586;BME280;2305;50.118;8.952;2023-07-09T10:44:55;100800.03;;;32.46;67.09
4586;BME280;2305;50.118;8.952;2023-07-09T10:47:30;100793.63;;;32.57;68.87
4586;BME280;2305;50.118;8.952;2023-07-09T10:50:01;100791.22;;;32.66;68.79
4586;BME280;2305;50.118;8.952;2023-07-09T10:52:36;100792.94;;;32.72;65.81
4586;BME280;2305;50.118;8.952;2023-07-09T10:55:13;100786.22;;;32.79;65.55
4586;BME280;2305;50.118;8.952;2023-07-09T10:57:49;100776.16;;;32.85;64.73
4586;BME280;2305;50.118;8.952;2023-07-09T11:00:20;100783.31;;;32.91;64.77
4586;BME280;2305;50.118;8.952;2023-07-09T11:02:58;100773.56;;;33.00;66.54
4586;BME280;2305;50.118;8.952;2023-07-09T11:05:27;100773.91;;;33.08;65.19
4586;BME280;2305;50.118;8.952;2023-07-09T11:08:00;100775.50;;;33.04;61.85
4586;BME280;2305;50.118;8.952;2023-07-09T11:10:30;100777.88;;;32.96;62.12
4586;BME280;2305;50.118;8.952;2023-07-09T11:13:10;100762.63;;;33.00;60.35
4586;BME280;2305;50.118;8.952;2023-07-09T11:15:42;100757.88;;;33.22;55.94
4586;BME280;2305;50.118;8.952;2023-07-09T11:18:20;100758.78;;;33.27;56.83
4586;BME280;2305;50.118;8.952;2023-07-09T11:20:59;100757.72;;;33.33;55.72
4586;BME280;2305;50.118;8.952;2023-07-09T11:23:38;100765.19;;;33.43;55.78
4586;BME280;2305;50.118;8.952;2023-07-09T11:26:12;100764.16;;;33.54;53.70
4586;BME280;2305;50.118;8.952;2023-07-09T11:28:50;100758.75;;;33.64;51.04
4586;BME280;2305;50.118;8.952;2023-07-09T11:31:22;100773.22;;;33.59;58.83
4586;BME280;2305;50.118;8.952;2023-07-09T11:34:00;100763.31;;;33.17;60.68
4586;BME280;2305;50.118;8.952;2023-07-09T11:36:35;100752.69;;;33.20;55.96
4586;BME280;2305;50.118;8.952;2023-07-09T11:39:19;100760.25;;;33.45;52.83
4586;BME280;2305;50.118;8.952;2023-07-09T11:41:48;100756.28;;;33.62;52.05
4586;BME280;2305;50.118;8.952;2023-07-09T11:44:20;100746.22;;;33.73;51.63
4586;BME280;2305;50.118;8.952;2023-07-09T11:46:54;100751.78;;;33.83;51.66
4586;BME280;2305;50.118;8.952;2023-07-09T11:49:27;100739.50;;;33.95;52.65
4586;BME280;2305;50.118;8.952;2023-07-09T11:52:01;100734.94;;;34.11;49.41
4586;BME280;2305;50.118;8.952;2023-07-09T11:54:34;100728.69;;;34.25;48.97
4586;BME280;2305;50.118;8.952;2023-07-09T11:57:12;100734.22;;;34.35;48.09
4586;BME280;2305;50.118;8.952;2023-07-09T11:59:42;100734.78;;;34.52;47.51
4586;BME280;2305;50.118;8.952;2023-07-09T12:02:16;100738.09;;;34.64;49.37
4586;BME280;2305;50.118;8.952;2023-07-09T12:04:49;100730.44;;;34.76;47.44
4586;BME280;2305;50.118;8.952;2023-07-09T12:07:22;100735.94;;;34.86;46.99
4586;BME280;2305;50.118;8.952;2023-07-09T12:09:54;100722.22;;;34.96;45.71
4586;BME280;2305;50.118;8.952;2023-07-09T12:12:25;100722.25;;;35.01;45.32
4586;BME280;2305;50.118;8.952;2023-07-09T12:14:58;100720.84;;;35.14;42.68
4586;BME280;2305;50.118;8.952;2023-07-09T12:17:27;100709.63;;;35.25;43.93
4586;BME280;2305;50.118;8.952;2023-07-09T12:19:59;100710.16;;;35.37;44.82
4586;BME280;2305;50.118;8.952;2023-07-09T12:22:30;100701.88;;;35.52;46.54
4586;BME280;2305;50.118;8.952;2023-07-09T12:25:18;100705.94;;;35.65;42.15
4586;BME280;2305;50.118;8.952;2023-07-09T12:27:58;100694.97;;;35.65;42.65
4586;BME280;2305;50.118;8.952;2023-07-09T12:30:38;100701.00;;;35.77;42.94
4586;BME280;2305;50.118;8.952;2023-07-09T12:33:20;100688.84;;;35.93;47.17
4586;BME280;2305;50.118;8.952;2023-07-09T12:35:56;100680.94;;;35.86;48.23
4586;BME280;2305;50.118;8.952;2023-07-09T12:38:26;100683.16;;;35.74;46.03
4586;BME280;2305;50.118;8.952;2023-07-09T12:41:00;100686.63;;;35.95;44.48
4586;BME280;2305;50.118;8.952;2023-07-09T12:43:33;100684.06;;;36.18;41.36
4586;BME280;2305;50.118;8.952;2023-07-09T12:46:07;100681.44;;;36.42;42.47
4586;BME280;2305;50.118;8.952;2023-07-09T12:48:36;100670.03;;;36.58;40.93
4586;BME280;2305;50.118;8.952;2023-07-09T12:51:07;100665.06;;;36.65;38.21
4586;BME280;2305;50.118;8.952;2023-07-09T12:53:36;100655.84;;;36.79;38.92
4586;BME280;2305;50.118;8.952;2023-07-09T12:56:11;100656.78;;;36.98;39.38
4586;BME280;2305;50.118;8.952;2023-07-09T12:58:41;100650.03;;;37.14;37.88
4586;BME280;2305;50.118;8.952;2023-07-09T13:01:16;100634.72;;;37.32;38.63
4586;BME280;2305;50.118;8.952;2023-07-09T13:03:53;100635.38;;;37.47;38.69
4586;BME280;2305;50.118;8.952;2023-07-09T13:06:27;100632.22;;;37.59;36.69
4586;BME280;2305;50.118;8.952;2023-07-09T13:08:57;100613.94;;;37.68;35.22
4586;BME280;2305;50.118;8.952;2023-07-09T13:11:32;100623.75;;;37.74;36.00
4586;BME280;2305;50.118;8.952;2023-07-09T13:14:03;100611.78;;;37.83;34.15
4586;BME280;2305;50.118;8.952;2023-07-09T13:16:39;100616.91;;;37.90;40.96
4586;BME280;2305;50.118;8.952;2023-07-09T13:19:10;100618.84;;;37.52;42.79
4586;BME280;2305;50.118;8.952;2023-07-09T13:21:39;100616.72;;;37.21;38.53
4586;BME280;2305;50.118;8.952;2023-07-09T13:24:13;100602.06;;;37.49;37.17
4586;BME280;2305;50.118;8.952;2023-07-09T13:26:43;100611.50;;;37.85;36.73
4586;BME280;2305;50.118;8.952;2023-07-09T13:29:13;100614.66;;;38.15;36.26